sensor_id;sensor_type;location;lat;lon;timestamp;pressure;altitude;pressure_sealevel;temperature;humidity
12799;BME280;19250;42.646;26.980;2022-08-11T00:01:13;98894.97;;;23.37;75.40
12799;BME280;19250;42.646;26.980;2022-08-11T00:03:46;98897.59;;;23.31;74.82
12799;BME280;19250;42.646;26.980;2022-08-11T00:06:15;98905.69;;;23.26;75.34
12799;BME280;19250;42.646;26.980;2022-08-11T00:08:50;98893.00;;;23.32;74.81
12799;BME280;19250;42.646;26.980;2022-08-11T00:11:19;98899.50;;;23.31;74.43
12799;BME280;19250;42.646;26.980;2022-08-11T00:13:48;98895.63;;;23.27;74.82
12799;BME280;19250;42.646;26.980;2022-08-11T00:16:17;98898.38;;;23.15;74.69
12799;BME280;19250;42.646;26.980;2022-08-11T00:18:48;98887.13;;;23.12;75.29
12799;BME280;19250;42.646;26.980;2022-08-11T00:21:16;98883.38;;;23.13;75.33
12799;BME280;19250;42.646;26.980;2022-08-11T00:23:46;98885.56;;;22.99;76.17
12799;BME280;19250;42.646;26.980;2022-08-11T00:26:21;98887.94;;;22.96;75.86
12799;BME280;19250;42.646;26.980;2022-08-11T00:28:49;98903.16;;;22.97;76.15
12799;BME280;19250;42.646;26.980;2022-08-11T00:31:23;98895.91;;;23.14;74.86
12799;BME280;19250;42.646;26.980;2022-08-11T00:33:52;98891.09;;;23.04;75.47
12799;BME280;19250;42.646;26.980;2022-08-11T00:36:27;98892.00;;;23.10;75.47
12799;BME280;19250;42.646;26.980;2022-08-11T00:39:03;98885.66;;;23.04;75.74
12799;BME280;19250;42.646;26.980;2022-08-11T00:41:38;98889.78;;;23.07;75.40
12799;BME280;19250;42.646;26.980;2022-08-11T00:44:23;98886.66;;;23.15;75.48
12799;BME280;19250;42.646;26.980;2022-08-11T00:47:01;98883.16;;;23.03;75.99
12799;BME280;19250;42.646;26.980;2022-08-11T00:49:53;98858.72;;;22.91;75.12
12799;BME280;19250;42.646;26.980;2022-08-11T00:52:46;98883.09;;;23.26;74.05
12799;BME280;19250;42.646;26.980;2022-08-11T00:55:40;98875.25;;;23.01;74.72
12799;BME280;19250;42.646;26.980;2022-08-11T01:01:36;98871.44;;;22.39;78.23
12799;BME280;19250;42.646;26.980;2022-08-11T01:04:27;98869.75;;;22.61;76.97
12799;BME280;19250;42.646;26.980;2022-08-11T01:10:44;98862.31;;;22.57;76.62
12799;BME280;19250;42.646;26.980;2022-08-11T01:13:28;98862.81;;;22.42;76.52
12799;BME280;19250;42.646;26.980;2022-08-11T01:16:40;98852.75;;;22.54;76.14
12799;BME280;19250;42.646;26.980;2022-08-11T01:19:43;98856.09;;;22.33;77.21
12799;BME280;19250;42.646;26.980;2022-08-11T01:22:47;98856.81;;;22.40;76.90
12799;BME280;19250;42.646;26.980;2022-08-11T01:26:08;98859.25;;;22.42;76.17
12799;BME280;19250;42.646;26.980;2022-08-11T01:32:25;98846.16;;;22.27;77.15
12799;BME280;19250;42.646;26.980;2022-08-11T01:35:34;98841.41;;;22.57;75.98
12799;BME280;19250;42.646;26.980;2022-08-11T01:38:37;98840.97;;;22.37;76.12
12799;BME280;19250;42.646;26.980;2022-08-11T01:41:35;98768.38;;;21.86;76.62
12799;BME280;19250;42.646;26.980;2022-08-11T01:44:48;98842.47;;;22.56;75.31
12799;BME280;19250;42.646;26.980;2022-08-11T01:47:38;98840.50;;;22.40;76.16
12799;BME280;19250;42.646;26.980;2022-08-11T01:50:26;98844.75;;;22.36;76.34
12799;BME280;19250;42.646;26.980;2022-08-11T01:53:03;98838.72;;;22.34;76.35
12799;BME280;19250;42.646;26.980;2022-08-11T01:55:41;98846.41;;;22.37;75.95
12799;BME280;19250;42.646;26.980;2022-08-11T01:58:18;98815.84;;;22.07;76.05
12799;BME280;19250;42.646;26.980;2022-08-11T02:01:00;98838.03;;;22.27;76.21
12799;BME280;19250;42.646;26.980;2022-08-11T02:03:34;98837.91;;;22.22;76.08
12799;BME280;19250;42.646;26.980;2022-08-11T02:06:12;98834.13;;;22.11;76.95
12799;BME280;19250;42.646;26.980;2022-08-11T02:09:03;98834.97;;;22.12;76.89
12799;BME280;19250;42.646;26.980;2022-08-11T02:11:35;98842.63;;;22.15;77.20
12799;BME280;19250;42.646;26.980;2022-08-11T02:14:25;98801.16;;;21.61;78.27
12799;BME280;19250;42.646;26.980;2022-08-11T02:17:10;98846.53;;;22.07;77.39
12799;BME280;19250;42.646;26.980;2022-08-11T02:19:46;98853.03;;;21.95;78.31
12799;BME280;19250;42.646;26.980;2022-08-11T02:22:38;98846.84;;;21.88;78.89
12799;BME280;19250;42.646;26.980;2022-08-11T02:25:30;98846.41;;;21.91;78.63
12799;BME280;19250;42.646;26.980;2022-08-11T02:28:03;98856.22;;;22.03;78.04
12799;BME280;19250;42.646;26.980;2022-08-11T02:30:40;98790.16;;;21.56;78.16
12799;BME280;19250;42.646;26.980;2022-08-11T02:33:34;98803.88;;;21.61;78.59
12799;BME280;19250;42.646;26.980;2022-08-11T02:36:06;98856.28;;;21.74;80.25
12799;BME280;19250;42.646;26.980;2022-08-11T02:38:44;98857.44;;;21.78;80.37
12799;BME280;19250;42.646;26.980;2022-08-11T02:41:20;98824.50;;;21.62;79.89
12799;BME280;19250;42.646;26.980;2022-08-11T02:44:14;98863.38;;;21.86;79.72
12799;BME280;19250;42.646;26.980;2022-08-11T02:46:50;98847.53;;;21.71;80.12
12799;BME280;19250;42.646;26.980;2022-08-11T02:49:32;98790.72;;;21.35;80.80
12799;BME280;19250;42.646;26.980;2022-08-11T02:52:32;98856.28;;;21.74;81.04
12799;BME280;19250;42.646;26.980;2022-08-11T02:55:15;98867.16;;;21.74;81.34
12799;BME280;19250;42.646;26.980;2022-08-11T02:57:52;98869.50;;;21.82;81.06
12799;BME280;19250;42.646;26.980;2022-08-11T03:00:20;98872.00;;;21.83;80.96
12799;BME280;19250;42.646;26.980;2022-08-11T03:02:59;98866.63;;;21.95;79.95
12799;BME280;19250;42.646;26.980;2022-08-11T03:05:40;98877.31;;;21.90;80.57
12799;BME280;19250;42.646;26.980;2022-08-11T03:08:22;98871.50;;;21.75;81.33
12799;BME280;19250;42.646;26.980;2022-08-11T03:10:59;98868.78;;;21.75;81.58
12799;BME280;19250;42.646;26.980;2022-08-11T03:14:05;98878.22;;;21.84;81.37
12799;BME280;19250;42.646;26.980;2022-08-11T03:16:57;98865.69;;;21.59;82.24
12799;BME280;19250;42.646;26.980;2022-08-11T03:19:32;98873.34;;;21.62;83.38
12799;BME280;19250;42.646;26.980;2022-08-11T03:22:07;98866.75;;;21.58;83.06
12799;BME280;19250;42.646;26.980;2022-08-11T03:24:48;98879.25;;;22.01;80.83
12799;BME280;19250;42.646;26.980;2022-08-11T03:27:28;98877.84;;;22.10;80.40
12799;BME280;19250;42.646;26.980;2022-08-11T03:30:05;98875.69;;;22.12;80.26
12799;BME280;19250;42.646;26.980;2022-08-11T03:32:45;98872.25;;;22.05;80.28
12799;BME280;19250;42.646;26.980;2022-08-11T03:35:42;98876.59;;;21.83;82.60
12799;BME280;19250;42.646;26.980;2022-08-11T03:38:12;98884.44;;;21.91;82.05
12799;BME280;19250;42.646;26.980;2022-08-11T03:40:49;98883.97;;;21.94;82.26
12799;BME280;19250;42.646;26.980;2022-08-11T03:43:52;98881.03;;;21.95;82.12
12799;BME280;19250;42.646;26.980;2022-08-11T03:46:28;98885.63;;;21.95;82.31
12799;BME280;19250;42.646;26.980;2022-08-11T03:49:10;98880.72;;;21.85;82.88
12799;BME280;19250;42.646;26.980;2022-08-11T03:51:49;98852.84;;;21.78;83.11
12799;BME280;19250;42.646;26.980;2022-08-11T03:54:27;98871.78;;;21.96;82.95
12799;BME280;19250;42.646;26.980;2022-08-11T03:57:44;98879.44;;;21.88;83.50
12799;BME280;19250;42.646;26.980;2022-08-11T04:00:44;98774.44;;;21.24;83.54
12799;BME280;19250;42.646;26.980;2022-08-11T04:03:57;98877.75;;;21.87;84.13
12799;BME280;19250;42.646;26.980;2022-08-11T04:07:23;98872.03;;;21.95;83.47
12799;BME280;19250;42.646;26.980;2022-08-11T04:17:05;98884.22;;;22.27;82.21
12799;BME280;19250;42.646;26.980;2022-08-11T04:20:12;98875.81;;;22.52;80.01
12799;BME280;19250;42.646;26.980;2022-08-11T04:23:06;98876.28;;;22.37;80.97
12799;BME280;19250;42.646;26.980;2022-08-11T04:26:05;98884.53;;;22.54;79.56
12799;BME280;19250;42.646;26.980;2022-08-11T04:28:53;98879.94;;;22.77;78.61
12799;BME280;19250;42.646;26.980;2022-08-11T04:31:34;98881.13;;;23.10;77.29
12799;BME280;19250;42.646;26.980;2022-08-11T04:34:11;98884.41;;;23.12;76.64
12799;BME280;19250;42.646;26.980;2022-08-11T04:37:10;98894.03;;;23.03;77.39
12799;BME280;19250;42.646;26.980;2022-08-11T04:40:19;98888.28;;;23.39;75.63
12799;BME280;19250;42.646;26.980;2022-08-11T04:46:14;98882.69;;;23.62;73.69
12799;BME280;19250;42.646;26.980;2022-08-11T04:49:12;98883.13;;;23.71;73.49
12799;BME280;19250;42.646;26.980;2022-08-11T04:52:33;98882.03;;;23.89;72.06
12799;BME280;19250;42.646;26.980;2022-08-11T04:55:48;98867.19;;;23.79;72.13
12799;BME280;19250;42.646;26.980;2022-08-11T04:58:54;98881.94;;;24.12;70.31
12799;BME280;19250;42.646;26.980;2022-08-11T05:02:02;98874.13;;;24.04;68.78
12799;BME280;19250;42.646;26.980;2022-08-11T05:04:52;98877.94;;;24.03;69.94
12799;BME280;19250;42.646;26.980;2022-08-11T05:11:06;98884.38;;;24.13;69.11
12799;BME280;19250;42.646;26.980;2022-08-11T05:13:44;98870.28;;;24.55;66.90
12799;BME280;19250;42.646;26.980;2022-08-11T05:16:32;98792.09;;;23.83;67.30
12799;BME280;19250;42.646;26.980;2022-08-11T05:19:19;98866.28;;;24.62;67.22
12799;BME280;19250;42.646;26.980;2022-08-11T05:22:07;98860.06;;;24.83;64.22
12799;BME280;19250;42.646;26.980;2022-08-11T05:24:58;98878.34;;;24.83;65.39
12799;BME280;19250;42.646;26.980;2022-08-11T05:27:56;98868.47;;;24.60;67.03
12799;BME280;19250;42.646;26.980;2022-08-11T05:30:46;98867.16;;;24.84;65.78
12799;BME280;19250;42.646;26.980;2022-08-11T05:33:34;98876.72;;;25.09;64.78
12799;BME280;19250;42.646;26.980;2022-08-11T05:36:26;98873.44;;;25.07;64.33
12799;BME280;19250;42.646;26.980;2022-08-11T05:39:00;98872.97;;;25.15;63.38
12799;BME280;19250;42.646;26.980;2022-08-11T05:41:48;98872.81;;;25.00;63.48
12799;BME280;19250;42.646;26.980;2022-08-11T05:44:34;98875.47;;;25.43;62.08
12799;BME280;19250;42.646;26.980;2022-08-11T05:47:22;98868.66;;;25.67;61.44
12799;BME280;19250;42.646;26.980;2022-08-11T05:50:10;98876.19;;;26.19;59.51
12799;BME280;19250;42.646;26.980;2022-08-11T05:52:56;98871.34;;;26.26;57.41
12799;BME280;19250;42.646;26.980;2022-08-11T05:55:42;98873.03;;;26.32;57.48
12799;BME280;19250;42.646;26.980;2022-08-11T05:58:33;98873.03;;;26.37;58.29
12799;BME280;19250;42.646;26.980;2022-08-11T06:01:01;98868.09;;;26.34;56.79
12799;BME280;19250;42.646;26.980;2022-08-11T06:03:31;98872.81;;;26.43;56.23
12799;BME280;19250;42.646;26.980;2022-08-11T06:06:19;98865.38;;;26.34;58.49
12799;BME280;19250;42.646;26.980;2022-08-11T06:08:48;98875.22;;;26.35;56.53
12799;BME280;19250;42.646;26.980;2022-08-11T06:11:15;98844.16;;;26.51;55.82
12799;BME280;19250;42.646;26.980;2022-08-11T06:13:45;98866.88;;;26.57;55.38
12799;BME280;19250;42.646;26.980;2022-08-11T06:16:20;98852.38;;;26.61;54.44
12799;BME280;19250;42.646;26.980;2022-08-11T06:18:48;98862.47;;;27.13;52.12
12799;BME280;19250;42.646;26.980;2022-08-11T06:21:17;98864.13;;;27.09;52.08
12799;BME280;19250;42.646;26.980;2022-08-11T06:23:45;98867.75;;;27.34;52.38
12799;BME280;19250;42.646;26.980;2022-08-11T06:26:13;98864.81;;;27.51;50.96
12799;BME280;19250;42.646;26.980;2022-08-11T06:28:43;98864.72;;;27.26;51.34
12799;BME280;19250;42.646;26.980;2022-08-11T06:31:15;98862.28;;;27.29;50.29
12799;BME280;19250;42.646;26.980;2022-08-11T06:33:53;98862.47;;;27.08;50.35
12799;BME280;19250;42.646;26.980;2022-08-11T06:36:26;98868.50;;;27.04;47.36
12799;BME280;19250;42.646;26.980;2022-08-11T06:39:06;98868.34;;;26.79;50.75
12799;BME280;19250;42.646;26.980;2022-08-11T06:41:44;98860.97;;;27.62;45.95
12799;BME280;19250;42.646;26.980;2022-08-11T06:44:26;98847.31;;;27.97;45.69
12799;BME280;19250;42.646;26.980;2022-08-11T06:47:08;98865.94;;;28.31;44.58
12799;BME280;19250;42.646;26.980;2022-08-11T06:49:43;98872.81;;;28.08;45.13
12799;BME280;19250;42.646;26.980;2022-08-11T06:52:31;98873.59;;;28.29;44.27
12799;BME280;19250;42.646;26.980;2022-08-11T06:55:05;98876.91;;;28.21;43.32
12799;BME280;19250;42.646;26.980;2022-08-11T06:57:34;98873.34;;;28.30;43.20
12799;BME280;19250;42.646;26.980;2022-08-11T07:00:20;98882.38;;;28.41;42.73
12799;BME280;19250;42.646;26.980;2022-08-11T07:02:58;98877.44;;;28.53;42.12
12799;BME280;19250;42.646;26.980;2022-08-11T07:05:39;98837.34;;;28.57;42.50
12799;BME280;19250;42.646;26.980;2022-08-11T07:14:47;98872.28;;;29.15;40.47
12799;BME280;19250;42.646;26.980;2022-08-11T07:17:38;98882.81;;;28.93;40.66
12799;BME280;19250;42.646;26.980;2022-08-11T07:20:09;98875.75;;;29.80;38.68
12799;BME280;19250;42.646;26.980;2022-08-11T07:22:58;98872.84;;;30.00;38.31
12799;BME280;19250;42.646;26.980;2022-08-11T07:25:50;98883.25;;;30.08;37.45
12799;BME280;19250;42.646;26.980;2022-08-11T07:28:38;98877.78;;;30.03;37.30
12799;BME280;19250;42.646;26.980;2022-08-11T07:31:28;98886.06;;;30.32;37.15
12799;BME280;19250;42.646;26.980;2022-08-11T07:34:03;98888.84;;;30.61;36.92
12799;BME280;19250;42.646;26.980;2022-08-11T07:36:38;98833.19;;;30.64;35.47
12799;BME280;19250;42.646;26.980;2022-08-11T07:39:07;98852.72;;;30.86;35.63
12799;BME280;19250;42.646;26.980;2022-08-11T07:41:36;98884.16;;;30.85;35.55
12799;BME280;19250;42.646;26.980;2022-08-11T07:44:04;98857.34;;;31.14;34.42
12799;BME280;19250;42.646;26.980;2022-08-11T07:46:37;98891.28;;;30.86;34.47
12799;BME280;19250;42.646;26.980;2022-08-11T07:49:23;98887.53;;;30.77;34.81
12799;BME280;19250;42.646;26.980;2022-08-11T07:52:10;98889.63;;;30.61;34.01
12799;BME280;19250;42.646;26.980;2022-08-11T07:54:59;98886.50;;;30.73;34.32
12799;BME280;19250;42.646;26.980;2022-08-11T07:57:29;98889.50;;;30.48;35.17
12799;BME280;19250;42.646;26.980;2022-08-11T08:00:15;98889.19;;;31.02;34.65
12799;BME280;19250;42.646;26.980;2022-08-11T08:03:01;98886.47;;;31.20;34.43
12799;BME280;19250;42.646;26.980;2022-08-11T08:05:47;98879.44;;;30.62;35.52
12799;BME280;19250;42.646;26.980;2022-08-11T08:08:35;98887.34;;;30.92;35.06
12799;BME280;19250;42.646;26.980;2022-08-11T08:11:22;98881.44;;;31.27;33.64
12799;BME280;19250;42.646;26.980;2022-08-11T08:14:08;98880.66;;;31.03;33.85
12799;BME280;19250;42.646;26.980;2022-08-11T08:16:54;98880.88;;;31.68;33.78
12799;BME280;19250;42.646;26.980;2022-08-11T08:19:39;98879.09;;;31.77;33.10
12799;BME280;19250;42.646;26.980;2022-08-11T08:22:09;98882.34;;;32.30;32.66
12799;BME280;19250;42.646;26.980;2022-08-11T08:24:39;98824.16;;;31.43;33.43
12799;BME280;19250;42.646;26.980;2022-08-11T08:27:08;98872.78;;;32.09;32.18
12799;BME280;19250;42.646;26.980;2022-08-11T08:29:37;98868.53;;;32.16;32.98
12799;BME280;19250;42.646;26.980;2022-08-11T08:32:22;98881.69;;;32.38;32.04
12799;BME280;19250;42.646;26.980;2022-08-11T08:34:52;98871.38;;;32.57;31.86
12799;BME280;19250;42.646;26.980;2022-08-11T08:37:21;98864.84;;;32.67;31.71
12799;BME280;19250;42.646;26.980;2022-08-11T08:39:51;98867.22;;;32.27;31.93
12799;BME280;19250;42.646;26.980;2022-08-11T08:42:24;98871.53;;;32.93;31.45
12799;BME280;19250;42.646;26.980;2022-08-11T08:44:58;98847.03;;;32.73;31.05
12799;BME280;19250;42.646;26.980;2022-08-11T08:47:28;98862.97;;;32.49;31.17
12799;BME280;19250;42.646;26.980;2022-08-11T08:50:00;98841.47;;;32.32;31.27
12799;BME280;19250;42.646;26.980;2022-08-11T08:52:33;98861.69;;;32.60;31.28
12799;BME280;19250;42.646;26.980;2022-08-11T08:55:06;98864.06;;;32.34;30.78
12799;BME280;19250;42.646;26.980;2022-08-11T08:57:36;98872.97;;;31.80;31.33
12799;BME280;19250;42.646;26.980;2022-08-11T09:00:05;98862.81;;;32.59;31.27
12799;BME280;19250;42.646;26.980;2022-08-11T09:02:33;98874.28;;;33.56;30.00
12799;BME280;19250;42.646;26.980;2022-08-11T09:05:01;98864.88;;;33.08;29.87
12799;BME280;19250;42.646;26.980;2022-08-11T09:07:30;98854.38;;;32.50;31.19
12799;BME280;19250;42.646;26.980;2022-08-11T09:09:59;98857.69;;;33.20;31.28
12799;BME280;19250;42.646;26.980;2022-08-11T09:12:29;98858.00;;;33.68;29.99
12799;BME280;19250;42.646;26.980;2022-08-11T09:14:57;98853.59;;;34.34;28.91
12799;BME280;19250;42.646;26.980;2022-08-11T09:17:32;98859.56;;;33.83;29.81
12799;BME280;19250;42.646;26.980;2022-08-11T09:20:03;98859.25;;;34.99;28.43
12799;BME280;19250;42.646;26.980;2022-08-11T09:22:32;98853.59;;;34.34;29.34
12799;BME280;19250;42.646;26.980;2022-08-11T09:25:18;98850.91;;;34.82;28.24
12799;BME280;19250;42.646;26.980;2022-08-11T09:28:09;98853.44;;;35.09;27.57
12799;BME280;19250;42.646;26.980;2022-08-11T09:30:39;98850.66;;;34.30;28.33
12799;BME280;19250;42.646;26.980;2022-08-11T09:33:09;98855.97;;;34.49;27.64
12799;BME280;19250;42.646;26.980;2022-08-11T09:35:39;98850.19;;;33.70;29.47
12799;BME280;19250;42.646;26.980;2022-08-11T09:38:11;98852.78;;;33.67;28.76
12799;BME280;19250;42.646;26.980;2022-08-11T09:40:57;98846.00;;;34.17;28.33
12799;BME280;19250;42.646;26.980;2022-08-11T09:43:27;98833.94;;;34.83;26.91
12799;BME280;19250;42.646;26.980;2022-08-11T09:46:13;98837.50;;;34.44;27.34
12799;BME280;19250;42.646;26.980;2022-08-11T09:48:43;98839.06;;;34.59;27.58
12799;BME280;19250;42.646;26.980;2022-08-11T09:51:12;98845.16;;;34.70;27.38
12799;BME280;19250;42.646;26.980;2022-08-11T09:53:41;98850.09;;;34.51;27.35
12799;BME280;19250;42.646;26.980;2022-08-11T09:56:11;98842.38;;;35.26;26.92
12799;BME280;19250;42.646;26.980;2022-08-11T09:59:00;98841.25;;;36.77;24.80
12799;BME280;19250;42.646;26.980;2022-08-11T10:01:31;98845.75;;;36.98;24.79
12799;BME280;19250;42.646;26.980;2022-08-11T10:04:04;98831.72;;;36.40;24.82
12799;BME280;19250;42.646;26.980;2022-08-11T10:06:36;98843.41;;;36.71;25.40
12799;BME280;19250;42.646;26.980;2022-08-11T10:09:23;98845.03;;;35.66;25.91
12799;BME280;19250;42.646;26.980;2022-08-11T10:11:52;98845.47;;;36.83;25.06
12799;BME280;19250;42.646;26.980;2022-08-11T10:14:25;98836.00;;;36.29;25.46
12799;BME280;19250;42.646;26.980;2022-08-11T10:17:12;98832.53;;;37.66;23.94
12799;BME280;19250;42.646;26.980;2022-08-11T10:19:42;98847.72;;;37.19;24.46
12799;BME280;19250;42.646;26.980;2022-08-11T10:22:10;98831.78;;;37.57;24.21
12799;BME280;19250;42.646;26.980;2022-08-11T10:24:58;98832.94;;;37.77;23.44
12799;BME280;19250;42.646;26.980;2022-08-11T10:27:43;98794.78;;;37.56;23.93
12799;BME280;19250;42.646;26.980;2022-08-11T10:30:12;98821.38;;;37.66;24.47
12799;BME280;19250;42.646;26.980;2022-08-11T10:32:57;98787.88;;;37.75;23.61
12799;BME280;19250;42.646;26.980;2022-08-11T10:35:44;98839.84;;;38.24;23.19
12799;BME280;19250;42.646;26.980;2022-08-11T10:38:13;98831.72;;;38.19;23.03
12799;BME280;19250;42.646;26.980;2022-08-11T10:40:45;98850.09;;;36.70;24.14
12799;BME280;19250;42.646;26.980;2022-08-11T10:43:33;98837.50;;;36.26;24.95
12799;BME280;19250;42.646;26.980;2022-08-11T10:46:01;98845.06;;;37.93;23.47
12799;BME280;19250;42.646;26.980;2022-08-11T10:48:45;98842.81;;;38.40;22.39
12799;BME280;19250;42.646;26.980;2022-08-11T10:51:13;98827.97;;;37.61;22.64
12799;BME280;19250;42.646;26.980;2022-08-11T10:53:42;98841.09;;;38.14;22.07
12799;BME280;19250;42.646;26.980;2022-08-11T10:56:28;98836.56;;;38.10;22.71
12799;BME280;19250;42.646;26.980;2022-08-11T10:59:15;98826.88;;;37.75;22.84
12799;BME280;19250;42.646;26.980;2022-08-11T11:01:44;98830.53;;;36.58;23.64
12799;BME280;19250;42.646;26.980;2022-08-11T11:04:14;98830.69;;;35.81;24.93
12799;BME280;19250;42.646;26.980;2022-08-11T11:06:51;98835.91;;;35.74;25.11
12799;BME280;19250;42.646;26.980;2022-08-11T11:09:24;98821.91;;;37.18;23.36
12799;BME280;19250;42.646;26.980;2022-08-11T11:12:01;98828.25;;;38.22;22.30
12799;BME280;19250;42.646;26.980;2022-08-11T11:14:47;98804.75;;;38.44;22.05
12799;BME280;19250;42.646;26.980;2022-08-11T11:17:39;98810.78;;;38.70;21.96
12799;BME280;19250;42.646;26.980;2022-08-11T11:20:33;98814.97;;;38.07;22.76
12799;BME280;19250;42.646;26.980;2022-08-11T11:23:04;98818.16;;;37.35;22.88
12799;BME280;19250;42.646;26.980;2022-08-11T11:25:56;98757.66;;;36.52;23.28
12799;BME280;19250;42.646;26.980;2022-08-11T11:32:20;98817.72;;;34.60;26.46
12799;BME280;19250;42.646;26.980;2022-08-11T11:35:31;98809.13;;;33.86;27.26
12799;BME280;19250;42.646;26.980;2022-08-11T11:38:02;98756.00;;;34.76;25.81
12799;BME280;19250;42.646;26.980;2022-08-11T11:40:34;98807.19;;;35.70;24.78
12799;BME280;19250;42.646;26.980;2022-08-11T11:43:03;98805.19;;;36.13;24.28
12799;BME280;19250;42.646;26.980;2022-08-11T11:45:31;98804.47;;;36.25;24.19
12799;BME280;19250;42.646;26.980;2022-08-11T11:48:00;98777.09;;;35.97;24.75
12799;BME280;19250;42.646;26.980;2022-08-11T11:50:30;98808.78;;;36.14;24.53
12799;BME280;19250;42.646;26.980;2022-08-11T11:53:01;98797.34;;;37.82;23.09
12799;BME280;19250;42.646;26.980;2022-08-11T11:55:30;98817.00;;;40.35;20.61
12799;BME280;19250;42.646;26.980;2022-08-11T11:58:00;98800.06;;;40.59;20.26
12799;BME280;19250;42.646;26.980;2022-08-11T12:00:45;98798.56;;;41.66;18.81
12799;BME280;19250;42.646;26.980;2022-08-11T12:03:31;98815.00;;;41.14;20.03
12799;BME280;19250;42.646;26.980;2022-08-11T12:06:01;98798.97;;;40.48;20.12
12799;BME280;19250;42.646;26.980;2022-08-11T12:08:29;98802.84;;;40.75;19.85
12799;BME280;19250;42.646;26.980;2022-08-11T12:11:00;98807.94;;;41.20;19.55
12799;BME280;19250;42.646;26.980;2022-08-11T12:13:47;98812.22;;;40.98;19.96
12799;BME280;19250;42.646;26.980;2022-08-11T12:16:17;98808.75;;;41.55;19.47
12799;BME280;19250;42.646;26.980;2022-08-11T12:18:46;98808.53;;;40.79;19.22
12799;BME280;19250;42.646;26.980;2022-08-11T12:21:16;98765.13;;;38.62;21.11
12799;BME280;19250;42.646;26.980;2022-08-11T12:23:46;98798.34;;;38.43;21.27
12799;BME280;19250;42.646;26.980;2022-08-11T12:26:32;98797.78;;;38.17;22.34
12799;BME280;19250;42.646;26.980;2022-08-11T12:29:18;98813.72;;;37.63;22.61
12799;BME280;19250;42.646;26.980;2022-08-11T12:31:47;98793.59;;;37.78;22.89
12799;BME280;19250;42.646;26.980;2022-08-11T12:34:16;98796.25;;;38.40;21.98
12799;BME280;19250;42.646;26.980;2022-08-11T12:36:49;98802.44;;;38.13;22.50
12799;BME280;19250;42.646;26.980;2022-08-11T12:39:20;98791.31;;;38.13;22.60
12799;BME280;19250;42.646;26.980;2022-08-11T12:42:09;98795.38;;;37.62;22.58
12799;BME280;19250;42.646;26.980;2022-08-11T12:44:56;98798.72;;;37.55;22.20
12799;BME280;19250;42.646;26.980;2022-08-11T12:47:43;98793.88;;;37.65;23.14
12799;BME280;19250;42.646;26.980;2022-08-11T12:50:30;98779.97;;;39.67;20.87
12799;BME280;19250;42.646;26.980;2022-08-11T12:53:17;98774.88;;;38.56;21.32
12799;BME280;19250;42.646;26.980;2022-08-11T12:55:47;98796.56;;;36.52;23.84
12799;BME280;19250;42.646;26.980;2022-08-11T12:58:34;98786.31;;;34.73;26.08
12799;BME280;19250;42.646;26.980;2022-08-11T13:01:03;98781.94;;;34.80;25.91
12799;BME280;19250;42.646;26.980;2022-08-11T13:03:48;98792.22;;;34.80;26.06
12799;BME280;19250;42.646;26.980;2022-08-11T13:06:32;98777.78;;;35.86;24.39
12799;BME280;19250;42.646;26.980;2022-08-11T13:09:04;98781.03;;;36.05;24.49
12799;BME280;19250;42.646;26.980;2022-08-11T13:11:33;98782.75;;;37.23;23.13
12799;BME280;19250;42.646;26.980;2022-08-11T13:14:18;98781.38;;;37.71;22.87
12799;BME280;19250;42.646;26.980;2022-08-11T13:16:46;98771.69;;;37.35;23.03
12799;BME280;19250;42.646;26.980;2022-08-11T13:19:32;98779.69;;;36.58;23.97
12799;BME280;19250;42.646;26.980;2022-08-11T13:22:00;98773.00;;;36.50;23.77
12799;BME280;19250;42.646;26.980;2022-08-11T13:24:31;98776.94;;;36.11;24.80
12799;BME280;19250;42.646;26.980;2022-08-11T13:27:00;98782.75;;;37.23;23.09
12799;BME280;19250;42.646;26.980;2022-08-11T13:29:30;98774.75;;;36.25;24.11
12799;BME280;19250;42.646;26.980;2022-08-11T13:31:58;98795.94;;;35.75;25.25
12799;BME280;19250;42.646;26.980;2022-08-11T13:34:26;98782.84;;;35.15;25.75
12799;BME280;19250;42.646;26.980;2022-08-11T13:36:58;98779.66;;;34.74;26.20
12799;BME280;19250;42.646;26.980;2022-08-11T13:39:28;98778.41;;;34.49;26.34
12799;BME280;19250;42.646;26.980;2022-08-11T13:41:58;98765.34;;;34.10;26.58
12799;BME280;19250;42.646;26.980;2022-08-11T13:44:27;98772.94;;;34.05;26.65
12799;BME280;19250;42.646;26.980;2022-08-11T13:46:57;98747.03;;;33.70;27.17
12799;BME280;19250;42.646;26.980;2022-08-11T13:49:27;98781.59;;;33.81;26.88
12799;BME280;19250;42.646;26.980;2022-08-11T13:51:55;98747.38;;;33.55;26.67
12799;BME280;19250;42.646;26.980;2022-08-11T13:54:26;98774.78;;;34.96;25.71
12799;BME280;19250;42.646;26.980;2022-08-11T13:56:59;98792.78;;;35.42;25.05
12799;BME280;19250;42.646;26.980;2022-08-11T13:59:27;98790.44;;;34.44;26.35
12799;BME280;19250;42.646;26.980;2022-08-11T14:01:57;98786.31;;;34.33;26.16
12799;BME280;19250;42.646;26.980;2022-08-11T14:04:31;98788.09;;;34.07;26.92
12799;BME280;19250;42.646;26.980;2022-08-11T14:07:02;98776.84;;;33.73;27.80
12799;BME280;19250;42.646;26.980;2022-08-11T14:09:42;98784.47;;;33.98;27.36
12799;BME280;19250;42.646;26.980;2022-08-11T14:12:16;98776.66;;;33.56;27.41
12799;BME280;19250;42.646;26.980;2022-08-11T14:15:09;98784.22;;;33.42;27.91
12799;BME280;19250;42.646;26.980;2022-08-11T14:17:38;98756.31;;;33.29;27.65
12799;BME280;19250;42.646;26.980;2022-08-11T14:20:09;98766.00;;;33.85;27.46
12799;BME280;19250;42.646;26.980;2022-08-11T14:22:40;98763.34;;;33.58;26.90
12799;BME280;19250;42.646;26.980;2022-08-11T14:25:20;98776.75;;;33.42;28.00
12799;BME280;19250;42.646;26.980;2022-08-11T14:27:51;98765.53;;;33.25;28.26
12799;BME280;19250;42.646;26.980;2022-08-11T14:30:21;98755.97;;;32.95;27.97